sensor_id;sensor_type;location;lat;lon;timestamp;temperature;humidity
33105;DHT22;19476;51.448;6.674;2023-12-20T00:02:08;14.40;60.50
33105;DHT22;19476;51.448;6.674;2023-12-20T00:04:34;14.40;60.00
33105;DHT22;19476;51.448;6.674;2023-12-20T00:06:59;14.40;60.10
33105;DHT22;19476;51.448;6.674;2023-12-20T00:09:25;14.40;59.60
33105;DHT22;19476;51.448;6.674;2023-12-20T00:11:50;14.30;59.70
33105;DHT22;19476;51.448;6.674;2023-12-20T00:14:16;14.30;59.80
33105;DHT22;19476;51.448;6.674;2023-12-20T00:16:41;14.30;59.70
33105;DHT22;19476;51.448;6.674;2023-12-20T00:19:07;14.30;59.40
33105;DHT22;19476;51.448;6.674;2023-12-20T00:21:33;14.20;59.50
33105;DHT22;19476;51.448;6.674;2023-12-20T00:23:58;14.20;59.50
33105;DHT22;19476;51.448;6.674;2023-12-20T00:26:24;14.10;59.50
33105;DHT22;19476;51.448;6.674;2023-12-20T00:28:50;14.10;59.60
33105;DHT22;19476;51.448;6.674;2023-12-20T00:31:15;14.10;59.30
33105;DHT22;19476;51.448;6.674;2023-12-20T00:33:41;14.10;59.40
33105;DHT22;19476;51.448;6.674;2023-12-20T00:36:09;14.00;59.50
33105;DHT22;19476;51.448;6.674;2023-12-20T00:38:35;14.00;59.50
33105;DHT22;19476;51.448;6.674;2023-12-20T00:41:00;14.00;59.40
33105;DHT22;19476;51.448;6.674;2023-12-20T00:43:26;14.00;59.10
33105;DHT22;19476;51.448;6.674;2023-12-20T00:45:52;14.00;58.70
33105;DHT22;19476;51.448;6.674;2023-12-20T00:48:17;14.00;58.90
33105;DHT22;19476;51.448;6.674;2023-12-20T00:50:43;13.90;59.00
33105;DHT22;19476;51.448;6.674;2023-12-20T00:53:08;13.90;59.10
33105;DHT22;19476;51.448;6.674;2023-12-20T00:55:34;13.90;59.30
33105;DHT22;19476;51.448;6.674;2023-12-20T00:57:59;13.90;59.10
33105;DHT22;19476;51.448;6.674;2023-12-20T01:00:25;13.90;59.30
33105;DHT22;19476;51.448;6.674;2023-12-20T01:02:51;13.80;59.30
33105;DHT22;19476;51.448;6.674;2023-12-20T01:05:17;13.80;59.30
33105;DHT22;19476;51.448;6.674;2023-12-20T01:07:43;13.80;59.50
33105;DHT22;19476;51.448;6.674;2023-12-20T01:10:08;13.80;59.40
33105;DHT22;19476;51.448;6.674;2023-12-20T01:12:35;13.80;59.40
33105;DHT22;19476;51.448;6.674;2023-12-20T01:15:01;13.80;59.50
33105;DHT22;19476;51.448;6.674;2023-12-20T01:17:27;13.70;59.40
33105;DHT22;19476;51.448;6.674;2023-12-20T01:19:52;13.70;59.40
33105;DHT22;19476;51.448;6.674;2023-12-20T01:22:18;13.70;59.20
33105;DHT22;19476;51.448;6.674;2023-12-20T01:24:44;13.60;59.40
33105;DHT22;19476;51.448;6.674;2023-12-20T01:27:09;13.70;59.30
33105;DHT22;19476;51.448;6.674;2023-12-20T01:29:35;13.60;59.30
33105;DHT22;19476;51.448;6.674;2023-12-20T01:32:00;13.60;59.20
33105;DHT22;19476;51.448;6.674;2023-12-20T01:34:26;13.60;59.10
33105;DHT22;19476;51.448;6.674;2023-12-20T01:36:51;13.50;58.70
33105;DHT22;19476;51.448;6.674;2023-12-20T01:39:17;13.50;58.80
33105;DHT22;19476;51.448;6.674;2023-12-20T01:41:43;13.50;59.00
33105;DHT22;19476;51.448;6.674;2023-12-20T01:44:08;13.40;59.00
33105;DHT22;19476;51.448;6.674;2023-12-20T01:46:34;13.40;58.90
33105;DHT22;19476;51.448;6.674;2023-12-20T01:49:00;13.40;58.90
33105;DHT22;19476;51.448;6.674;2023-12-20T01:51:25;13.40;58.80
33105;DHT22;19476;51.448;6.674;2023-12-20T01:53:52;13.40;58.80
33105;DHT22;19476;51.448;6.674;2023-12-20T01:56:19;13.40;58.50
33105;DHT22;19476;51.448;6.674;2023-12-20T01:58:46;13.30;58.50
33105;DHT22;19476;51.448;6.674;2023-12-20T02:01:12;13.30;58.40
33105;DHT22;19476;51.448;6.674;2023-12-20T02:03:41;13.30;58.60
33105;DHT22;19476;51.448;6.674;2023-12-20T02:06:07;13.30;58.70
33105;DHT22;19476;51.448;6.674;2023-12-20T02:08:33;13.20;58.60
33105;DHT22;19476;51.448;6.674;2023-12-20T02:10:59;13.30;58.70
33105;DHT22;19476;51.448;6.674;2023-12-20T02:13:25;13.30;58.70
33105;DHT22;19476;51.448;6.674;2023-12-20T02:15:52;13.30;58.70
33105;DHT22;19476;51.448;6.674;2023-12-20T02:18:18;13.30;58.60
33105;DHT22;19476;51.448;6.674;2023-12-20T02:20:43;13.20;58.30
33105;DHT22;19476;51.448;6.674;2023-12-20T02:23:09;13.20;58.10
33105;DHT22;19476;51.448;6.674;2023-12-20T02:25:34;13.20;58.30
33105;DHT22;19476;51.448;6.674;2023-12-20T02:28:00;13.20;58.30
33105;DHT22;19476;51.448;6.674;2023-12-20T02:30:26;13.10;58.30
33105;DHT22;19476;51.448;6.674;2023-12-20T02:32:51;13.10;58.30
33105;DHT22;19476;51.448;6.674;2023-12-20T02:35:18;13.00;58.30
33105;DHT22;19476;51.448;6.674;2023-12-20T02:37:43;13.00;58.30
33105;DHT22;19476;51.448;6.674;2023-12-20T02:40:09;13.00;58.20
33105;DHT22;19476;51.448;6.674;2023-12-20T02:42:34;12.90;58.30
33105;DHT22;19476;51.448;6.674;2023-12-20T02:45:00;12.90;58.30
33105;DHT22;19476;51.448;6.674;2023-12-20T02:47:26;12.90;58.40
33105;DHT22;19476;51.448;6.674;2023-12-20T02:49:51;12.90;58.40
33105;DHT22;19476;51.448;6.674;2023-12-20T02:52:18;12.80;58.10
33105;DHT22;19476;51.448;6.674;2023-12-20T02:54:44;12.80;58.10
33105;DHT22;19476;51.448;6.674;2023-12-20T02:57:09;12.70;57.80
33105;DHT22;19476;51.448;6.674;2023-12-20T02:59:35;12.70;58.10
33105;DHT22;19476;51.448;6.674;2023-12-20T03:02:00;12.70;58.30
33105;DHT22;19476;51.448;6.674;2023-12-20T03:04:26;12.60;58.30
33105;DHT22;19476;51.448;6.674;2023-12-20T03:06:51;12.60;58.40
33105;DHT22;19476;51.448;6.674;2023-12-20T03:09:17;12.50;58.50
33105;DHT22;19476;51.448;6.674;2023-12-20T03:11:42;12.50;58.60
33105;DHT22;19476;51.448;6.674;2023-12-20T03:14:08;12.50;58.60
33105;DHT22;19476;51.448;6.674;2023-12-20T03:16:33;12.50;58.50
33105;DHT22;19476;51.448;6.674;2023-12-20T03:18:59;12.50;58.70
33105;DHT22;19476;51.448;6.674;2023-12-20T03:21:25;12.50;58.80
33105;DHT22;19476;51.448;6.674;2023-12-20T03:23:50;12.50;58.90
33105;DHT22;19476;51.448;6.674;2023-12-20T03:26:16;12.50;58.80
33105;DHT22;19476;51.448;6.674;2023-12-20T03:28:41;12.50;58.90
33105;DHT22;19476;51.448;6.674;2023-12-20T03:31:09;12.50;58.90
33105;DHT22;19476;51.448;6.674;2023-12-20T03:33:34;12.40;58.90
33105;DHT22;19476;51.448;6.674;2023-12-20T03:36:00;12.40;58.80
33105;DHT22;19476;51.448;6.674;2023-12-20T03:38:25;12.40;58.90
33105;DHT22;19476;51.448;6.674;2023-12-20T03:40:51;12.40;59.00
33105;DHT22;19476;51.448;6.674;2023-12-20T03:43:17;12.30;59.00
33105;DHT22;19476;51.448;6.674;2023-12-20T03:45:42;12.30;59.00
33105;DHT22;19476;51.448;6.674;2023-12-20T03:48:08;12.30;59.10
33105;DHT22;19476;51.448;6.674;2023-12-20T03:50:34;12.30;59.10
33105;DHT22;19476;51.448;6.674;2023-12-20T03:52:59;12.30;59.10
33105;DHT22;19476;51.448;6.674;2023-12-20T03:55:25;12.30;59.00
33105;DHT22;19476;51.448;6.674;2023-12-20T03:57:51;12.30;58.90
33105;DHT22;19476;51.448;6.674;2023-12-20T04:00:16;12.20;58.90
33105;DHT22;19476;51.448;6.674;2023-12-20T04:02:42;12.20;59.00
33105;DHT22;19476;51.448;6.674;2023-12-20T04:05:08;12.20;59.00
33105;DHT22;19476;51.448;6.674;2023-12-20T04:07:34;12.20;59.00
33105;DHT22;19476;51.448;6.674;2023-12-20T04:10:00;12.20;59.10
33105;DHT22;19476;51.448;6.674;2023-12-20T04:12:27;12.20;59.00
33105;DHT22;19476;51.448;6.674;2023-12-20T04:14:52;12.20;59.60
33105;DHT22;19476;51.448;6.674;2023-12-20T04:17:17;12.20;59.20
33105;DHT22;19476;51.448;6.674;2023-12-20T04:19:43;12.20;59.20
33105;DHT22;19476;51.448;6.674;2023-12-20T04:22:09;12.20;59.10
33105;DHT22;19476;51.448;6.674;2023-12-20T04:24:34;12.20;58.90
33105;DHT22;19476;51.448;6.674;2023-12-20T04:27:00;12.10;58.90
33105;DHT22;19476;51.448;6.674;2023-12-20T04:29:26;12.10;59.00
33105;DHT22;19476;51.448;6.674;2023-12-20T04:31:52;12.10;59.00
33105;DHT22;19476;51.448;6.674;2023-12-20T04:34:17;12.00;59.20
33105;DHT22;19476;51.448;6.674;2023-12-20T04:36:43;12.00;59.30
33105;DHT22;19476;51.448;6.674;2023-12-20T04:39:09;12.00;59.30
33105;DHT22;19476;51.448;6.674;2023-12-20T04:41:35;11.90;59.40
33105;DHT22;19476;51.448;6.674;2023-12-20T04:44:00;11.90;59.40
33105;DHT22;19476;51.448;6.674;2023-12-20T04:46:26;11.90;59.60
33105;DHT22;19476;51.448;6.674;2023-12-20T04:48:52;11.90;59.60
33105;DHT22;19476;51.448;6.674;2023-12-20T04:51:17;12.00;59.60
33105;DHT22;19476;51.448;6.674;2023-12-20T04:53:43;11.90;59.50
33105;DHT22;19476;51.448;6.674;2023-12-20T04:56:08;11.90;59.40
33105;DHT22;19476;51.448;6.674;2023-12-20T04:58:34;11.90;59.40
33105;DHT22;19476;51.448;6.674;2023-12-20T05:01:00;11.90;59.40
33105;DHT22;19476;51.448;6.674;2023-12-20T05:03:26;11.90;59.40
33105;DHT22;19476;51.448;6.674;2023-12-20T05:05:51;11.80;59.30
33105;DHT22;19476;51.448;6.674;2023-12-20T05:08:17;11.80;59.40
33105;DHT22;19476;51.448;6.674;2023-12-20T05:10:43;11.80;59.40
33105;DHT22;19476;51.448;6.674;2023-12-20T05:13:08;11.70;59.50
33105;DHT22;19476;51.448;6.674;2023-12-20T05:15:34;11.70;59.60
33105;DHT22;19476;51.448;6.674;2023-12-20T05:17:59;11.70;59.70
33105;DHT22;19476;51.448;6.674;2023-12-20T05:20:25;11.60;59.80
33105;DHT22;19476;51.448;6.674;2023-12-20T05:22:50;11.60;59.90
33105;DHT22;19476;51.448;6.674;2023-12-20T05:25:16;11.60;60.00
33105;DHT22;19476;51.448;6.674;2023-12-20T05:27:42;11.60;60.10
33105;DHT22;19476;51.448;6.674;2023-12-20T05:30:08;11.60;60.20
33105;DHT22;19476;51.448;6.674;2023-12-20T05:32:33;11.50;60.30
33105;DHT22;19476;51.448;6.674;2023-12-20T05:34:59;11.50;60.40
33105;DHT22;19476;51.448;6.674;2023-12-20T05:37:24;11.50;60.40
33105;DHT22;19476;51.448;6.674;2023-12-20T05:39:50;11.50;60.50
33105;DHT22;19476;51.448;6.674;2023-12-20T05:42:16;11.50;60.70
33105;DHT22;19476;51.448;6.674;2023-12-20T05:44:41;11.50;60.80
33105;DHT22;19476;51.448;6.674;2023-12-20T05:47:07;11.60;60.90
33105;DHT22;19476;51.448;6.674;2023-12-20T05:49:33;11.50;60.80
33105;DHT22;19476;51.448;6.674;2023-12-20T05:51:58;11.60;60.90
33105;DHT22;19476;51.448;6.674;2023-12-20T05:54:24;11.60;60.80
33105;DHT22;19476;51.448;6.674;2023-12-20T05:56:50;11.60;60.80
33105;DHT22;19476;51.448;6.674;2023-12-20T05:59:16;11.60;60.70
33105;DHT22;19476;51.448;6.674;2023-12-20T06:01:41;11.60;60.70
33105;DHT22;19476;51.448;6.674;2023-12-20T06:04:07;11.60;60.70
33105;DHT22;19476;51.448;6.674;2023-12-20T06:06:33;11.60;61.30
33105;DHT22;19476;51.448;6.674;2023-12-20T06:08:58;11.60;60.90
33105;DHT22;19476;51.448;6.674;2023-12-20T06:11:24;11.60;60.80
33105;DHT22;19476;51.448;6.674;2023-12-20T06:13:49;11.60;60.90
33105;DHT22;19476;51.448;6.674;2023-12-20T06:16:17;11.60;61.00
33105;DHT22;19476;51.448;6.674;2023-12-20T06:18:43;11.70;61.00
33105;DHT22;19476;51.448;6.674;2023-12-20T06:21:09;11.70;60.90
33105;DHT22;19476;51.448;6.674;2023-12-20T06:23:38;11.70;60.80
33105;DHT22;19476;51.448;6.674;2023-12-20T06:26:04;11.70;60.60
33105;DHT22;19476;51.448;6.674;2023-12-20T06:28:30;11.80;60.70
33105;DHT22;19476;51.448;6.674;2023-12-20T06:30:56;11.80;60.50
33105;DHT22;19476;51.448;6.674;2023-12-20T06:33:22;11.70;60.50
33105;DHT22;19476;51.448;6.674;2023-12-20T06:35:48;11.70;60.70
33105;DHT22;19476;51.448;6.674;2023-12-20T06:38:14;11.80;61.00
33105;DHT22;19476;51.448;6.674;2023-12-20T06:40:39;11.80;61.00
33105;DHT22;19476;51.448;6.674;2023-12-20T06:43:05;11.90;61.00
33105;DHT22;19476;51.448;6.674;2023-12-20T06:45:32;11.90;60.80
33105;DHT22;19476;51.448;6.674;2023-12-20T06:47:57;11.90;60.50
33105;DHT22;19476;51.448;6.674;2023-12-20T06:50:25;11.90;60.40
33105;DHT22;19476;51.448;6.674;2023-12-20T06:52:51;11.90;60.40
33105;DHT22;19476;51.448;6.674;2023-12-20T06:55:17;11.90;60.20
33105;DHT22;19476;51.448;6.674;2023-12-20T06:57:43;11.90;60.30
33105;DHT22;19476;51.448;6.674;2023-12-20T07:00:08;11.90;60.30
33105;DHT22;19476;51.448;6.674;2023-12-20T07:02:36;11.90;60.40
33105;DHT22;19476;51.448;6.674;2023-12-20T07:05:01;11.90;60.50
33105;DHT22;19476;51.448;6.674;2023-12-20T07:07:27;11.90;60.50
33105;DHT22;19476;51.448;6.674;2023-12-20T07:09:52;11.90;60.40
33105;DHT22;19476;51.448;6.674;2023-12-20T07:12:18;11.90;60.30
33105;DHT22;19476;51.448;6.674;2023-12-20T07:14:45;11.90;60.30
33105;DHT22;19476;51.448;6.674;2023-12-20T07:17:10;11.80;60.40
33105;DHT22;19476;51.448;6.674;2023-12-20T07:19:39;11.90;60.40
33105;DHT22;19476;51.448;6.674;2023-12-20T07:22:05;11.90;60.50
33105;DHT22;19476;51.448;6.674;2023-12-20T07:24:30;11.90;60.30
33105;DHT22;19476;51.448;6.674;2023-12-20T07:26:56;11.80;60.20
33105;DHT22;19476;51.448;6.674;2023-12-20T07:29:22;11.80;60.20
33105;DHT22;19476;51.448;6.674;2023-12-20T07:31:47;11.80;60.40
33105;DHT22;19476;51.448;6.674;2023-12-20T07:34:13;11.80;60.60
33105;DHT22;19476;51.448;6.674;2023-12-20T07:36:39;11.80;60.60
33105;DHT22;19476;51.448;6.674;2023-12-20T07:39:04;11.80;60.50
33105;DHT22;19476;51.448;6.674;2023-12-20T07:41:30;11.80;60.60
33105;DHT22;19476;51.448;6.674;2023-12-20T07:43:55;11.80;60.60
33105;DHT22;19476;51.448;6.674;2023-12-20T07:46:22;11.80;60.60
33105;DHT22;19476;51.448;6.674;2023-12-20T07:48:50;11.70;60.50
33105;DHT22;19476;51.448;6.674;2023-12-20T07:51:16;11.70;60.50
33105;DHT22;19476;51.448;6.674;2023-12-20T07:53:41;11.80;60.70
33105;DHT22;19476;51.448;6.674;2023-12-20T07:56:14;11.70;60.60
33105;DHT22;19476;51.448;6.674;2023-12-20T07:58:40;11.80;60.70
33105;DHT22;19476;51.448;6.674;2023-12-20T08:01:05;11.80;60.40
33105;DHT22;19476;51.448;6.674;2023-12-20T08:03:31;11.80;60.40
33105;DHT22;19476;51.448;6.674;2023-12-20T08:05:56;11.80;60.30
33105;DHT22;19476;51.448;6.674;2023-12-20T08:08:24;11.80;60.30
33105;DHT22;19476;51.448;6.674;2023-12-20T08:10:50;11.80;60.30
33105;DHT22;19476;51.448;6.674;2023-12-20T08:13:16;12.20;60.60
33105;DHT22;19476;51.448;6.674;2023-12-20T08:15:41;11.80;60.30
33105;DHT22;19476;51.448;6.674;2023-12-20T08:18:07;11.80;60.00
33105;DHT22;19476;51.448;6.674;2023-12-20T08:20:33;11.80;60.00
33105;DHT22;19476;51.448;6.674;2023-12-20T08:22:58;11.80;60.10
33105;DHT22;19476;51.448;6.674;2023-12-20T08:25:24;11.80;60.30
33105;DHT22;19476;51.448;6.674;2023-12-20T08:27:49;11.80;60.20
33105;DHT22;19476;51.448;6.674;2023-12-20T08:30:15;11.80;60.10
33105;DHT22;19476;51.448;6.674;2023-12-20T08:32:43;11.80;60.00
33105;DHT22;19476;51.448;6.674;2023-12-20T08:35:08;11.80;60.00
33105;DHT22;19476;51.448;6.674;2023-12-20T08:37:34;11.70;60.10
33105;DHT22;19476;51.448;6.674;2023-12-20T08:40:01;11.80;60.10
33105;DHT22;19476;51.448;6.674;2023-12-20T08:42:26;11.80;60.00
33105;DHT22;19476;51.448;6.674;2023-12-20T08:44:56;11.70;59.90
33105;DHT22;19476;51.448;6.674;2023-12-20T08:47:22;11.70;60.10
33105;DHT22;19476;51.448;6.674;2023-12-20T08:49:48;11.80;60.10
33105;DHT22;19476;51.448;6.674;2023-12-20T08:52:14;11.70;60.00
33105;DHT22;19476;51.448;6.674;2023-12-20T08:54:39;11.70;59.70
33105;DHT22;19476;51.448;6.674;2023-12-20T08:57:05;11.70;59.90
33105;DHT22;19476;51.448;6.674;2023-12-20T08:59:32;11.80;60.10
33105;DHT22;19476;51.448;6.674;2023-12-20T09:01:58;11.70;60.00
33105;DHT22;19476;51.448;6.674;2023-12-20T09:04:23;11.70;60.10
33105;DHT22;19476;51.448;6.674;2023-12-20T09:06:49;11.70;60.00
33105;DHT22;19476;51.448;6.674;2023-12-20T09:09:14;11.70;60.00
33105;DHT22;19476;51.448;6.674;2023-12-20T09:11:40;11.70;60.10
33105;DHT22;19476;51.448;6.674;2023-12-20T09:14:06;11.70;60.10
33105;DHT22;19476;51.448;6.674;2023-12-20T09:16:32;11.70;60.30
33105;DHT22;19476;51.448;6.674;2023-12-20T09:18:57;11.60;60.00
33105;DHT22;19476;51.448;6.674;2023-12-20T09:21:23;11.60;60.30
33105;DHT22;19476;51.448;6.674;2023-12-20T09:23:48;11.60;60.50
33105;DHT22;19476;51.448;6.674;2023-12-20T09:26:14;11.60;60.60
33105;DHT22;19476;51.448;6.674;2023-12-20T09:28:39;11.60;60.60
33105;DHT22;19476;51.448;6.674;2023-12-20T09:31:05;11.60;60.70
33105;DHT22;19476;51.448;6.674;2023-12-20T09:33:32;11.60;60.60
33105;DHT22;19476;51.448;6.674;2023-12-20T09:35:57;11.60;60.60
33105;DHT22;19476;51.448;6.674;2023-12-20T09:38:23;11.60;60.60
33105;DHT22;19476;51.448;6.674;2023-12-20T09:40:49;11.60;60.70
33105;DHT22;19476;51.448;6.674;2023-12-20T09:43:14;11.60;60.60
33105;DHT22;19476;51.448;6.674;2023-12-20T09:45:41;11.60;60.60
33105;DHT22;19476;51.448;6.674;2023-12-20T09:48:07;11.70;60.70
33105;DHT22;19476;51.448;6.674;2023-12-20T09:50:35;11.70;60.80
33105;DHT22;19476;51.448;6.674;2023-12-20T09:53:01;11.70;60.50
33105;DHT22;19476;51.448;6.674;2023-12-20T09:55:27;11.70;60.40
33105;DHT22;19476;51.448;6.674;2023-12-20T09:57:55;11.80;60.40
33105;DHT22;19476;51.448;6.674;2023-12-20T10:00:21;11.80;60.40
33105;DHT22;19476;51.448;6.674;2023-12-20T10:02:59;11.70;60.20
33105;DHT22;19476;51.448;6.674;2023-12-20T10:05:31;11.70;60.40
33105;DHT22;19476;51.448;6.674;2023-12-20T10:07:57;11.80;60.60
33105;DHT22;19476;51.448;6.674;2023-12-20T10:10:23;11.80;60.70
33105;DHT22;19476;51.448;6.674;2023-12-20T10:13:03;11.80;60.50
33105;DHT22;19476;51.448;6.674;2023-12-20T10:15:29;11.80;60.50
33105;DHT22;19476;51.448;6.674;2023-12-20T10:17:56;11.90;61.00
33105;DHT22;19476;51.448;6.674;2023-12-20T10:20:22;11.90;60.30
33105;DHT22;19476;51.448;6.674;2023-12-20T10:22:48;11.90;60.20
33105;DHT22;19476;51.448;6.674;2023-12-20T10:25:14;11.90;60.20
33105;DHT22;19476;51.448;6.674;2023-12-20T10:27:40;11.90;60.30
33105;DHT22;19476;51.448;6.674;2023-12-20T10:30:05;11.90;60.30
33105;DHT22;19476;51.448;6.674;2023-12-20T10:32:31;11.90;60.10
33105;DHT22;19476;51.448;6.674;2023-12-20T10:34:57;11.90;60.10
33105;DHT22;19476;51.448;6.674;2023-12-20T10:37:22;11.90;60.00
33105;DHT22;19476;51.448;6.674;2023-12-20T10:39:52;11.90;60.10
33105;DHT22;19476;51.448;6.674;2023-12-20T10:42:21;11.90;60.30
33105;DHT22;19476;51.448;6.674;2023-12-20T10:44:47;11.90;60.10
33105;DHT22;19476;51.448;6.674;2023-12-20T10:47:13;11.90;60.20
33105;DHT22;19476;51.448;6.674;2023-12-20T10:49:38;11.90;60.30
33105;DHT22;19476;51.448;6.674;2023-12-20T10:52:04;11.90;60.30
33105;DHT22;19476;51.448;6.674;2023-12-20T10:54:31;12.00;60.40
33105;DHT22;19476;51.448;6.674;2023-12-20T10:56:57;12.00;60.80
33105;DHT22;19476;51.448;6.674;2023-12-20T10:59:26;12.00;60.40
33105;DHT22;19476;51.448;6.674;2023-12-20T11:01:53;12.00;60.50
33105;DHT22;19476;51.448;6.674;2023-12-20T11:04:21;12.00;60.50
33105;DHT22;19476;51.448;6.674;2023-12-20T11:06:51;12.00;60.40
33105;DHT22;19476;51.448;6.674;2023-12-20T11:09:25;12.10;60.30
33105;DHT22;19476;51.448;6.674;2023-12-20T11:14:27;12.10;60.10
33105;DHT22;19476;51.448;6.674;2023-12-20T11:17:10;12.10;60.10
33105;DHT22;19476;51.448;6.674;2023-12-20T11:22:18;12.10;60.30
33105;DHT22;19476;51.448;6.674;2023-12-20T11:24:44;12.20;60.20
33105;DHT22;19476;51.448;6.674;2023-12-20T11:27:12;12.20;60.30
33105;DHT22;19476;51.448;6.674;2023-12-20T11:29:38;12.20;60.40
33105;DHT22;19476;51.448;6.674;2023-12-20T11:32:27;12.20;60.20
33105;DHT22;19476;51.448;6.674;2023-12-20T11:34:57;12.30;60.20
33105;DHT22;19476;51.448;6.674;2023-12-20T11:37:35;12.30;60.10
33105;DHT22;19476;51.448;6.674;2023-12-20T11:40:02;12.30;59.80
33105;DHT22;19476;51.448;6.674;2023-12-20T11:42:27;12.40;59.90
33105;DHT22;19476;51.448;6.674;2023-12-20T11:44:53;12.40;59.90
33105;DHT22;19476;51.448;6.674;2023-12-20T11:47:19;12.40;59.80
33105;DHT22;19476;51.448;6.674;2023-12-20T11:49:48;12.40;60.00
33105;DHT22;19476;51.448;6.674;2023-12-20T11:52:14;12.40;60.10
33105;DHT22;19476;51.448;6.674;2023-12-20T11:54:39;12.40;60.00
33105;DHT22;19476;51.448;6.674;2023-12-20T11:57:05;12.40;60.00
33105;DHT22;19476;51.448;6.674;2023-12-20T11:59:31;12.40;60.10
33105;DHT22;19476;51.448;6.674;2023-12-20T12:01:56;12.40;60.10
33105;DHT22;19476;51.448;6.674;2023-12-20T12:04:26;12.40;60.20
33105;DHT22;19476;51.448;6.674;2023-12-20T12:06:52;12.30;60.10
33105;DHT22;19476;51.448;6.674;2023-12-20T12:09:17;12.30;60.20
33105;DHT22;19476;51.448;6.674;2023-12-20T12:11:43;12.30;60.50
33105;DHT22;19476;51.448;6.674;2023-12-20T12:14:09;12.30;60.60
33105;DHT22;19476;51.448;6.674;2023-12-20T12:16:35;12.30;60.70
33105;DHT22;19476;51.448;6.674;2023-12-20T12:19:00;12.30;60.60
33105;DHT22;19476;51.448;6.674;2023-12-20T12:21:26;12.30;60.60
33105;DHT22;19476;51.448;6.674;2023-12-20T12:23:52;12.40;60.90
33105;DHT22;19476;51.448;6.674;2023-12-20T12:26:18;12.40;60.60
33105;DHT22;19476;51.448;6.674;2023-12-20T12:28:44;12.40;60.60
33105;DHT22;19476;51.448;6.674;2023-12-20T12:31:15;12.40;60.70
33105;DHT22;19476;51.448;6.674;2023-12-20T12:33:41;12.40;60.70
33105;DHT22;19476;51.448;6.674;2023-12-20T12:36:07;12.40;60.40
33105;DHT22;19476;51.448;6.674;2023-12-20T12:38:33;12.40;60.60
33105;DHT22;19476;51.448;6.674;2023-12-20T12:40:59;12.50;60.70
33105;DHT22;19476;51.448;6.674;2023-12-20T12:43:25;12.40;60.50
33105;DHT22;19476;51.448;6.674;2023-12-20T12:45:51;12.50;60.60
33105;DHT22;19476;51.448;6.674;2023-12-20T12:48:16;12.50;60.40
33105;DHT22;19476;51.448;6.674;2023-12-20T12:50:42;12.50;60.40
33105;DHT22;19476;51.448;6.674;2023-12-20T12:53:08;12.50;60.40
33105;DHT22;19476;51.448;6.674;2023-12-20T12:55:34;12.50;60.30
33105;DHT22;19476;51.448;6.674;2023-12-20T12:58:00;12.50;60.20
33105;DHT22;19476;51.448;6.674;2023-12-20T13:00:25;12.50;60.10
33105;DHT22;19476;51.448;6.674;2023-12-20T13:02:51;12.50;60.10
33105;DHT22;19476;51.448;6.674;2023-12-20T13:05:17;12.60;60.80
33105;DHT22;19476;51.448;6.674;2023-12-20T13:07:43;12.40;60.20
33105;DHT22;19476;51.448;6.674;2023-12-20T13:10:11;12.60;60.30
33105;DHT22;19476;51.448;6.674;2023-12-20T13:12:37;12.60;60.50
33105;DHT22;19476;51.448;6.674;2023-12-20T13:15:03;12.60;60.50
33105;DHT22;19476;51.448;6.674;2023-12-20T13:17:31;12.60;61.00
33105;DHT22;19476;51.448;6.674;2023-12-20T13:19:57;12.60;60.90
33105;DHT22;19476;51.448;6.674;2023-12-20T13:22:22;12.50;61.10
33105;DHT22;19476;51.448;6.674;2023-12-20T13:24:48;12.50;61.20
33105;DHT22;19476;51.448;6.674;2023-12-20T13:27:14;12.50;61.30
33105;DHT22;19476;51.448;6.674;2023-12-20T13:29:39;12.50;61.30
33105;DHT22;19476;51.448;6.674;2023-12-20T13:32:05;12.50;61.50
33105;DHT22;19476;51.448;6.674;2023-12-20T13:34:31;12.50;61.70
33105;DHT22;19476;51.448;6.674;2023-12-20T13:36:56;12.50;61.60
33105;DHT22;19476;51.448;6.674;2023-12-20T13:39:22;12.50;61.70
33105;DHT22;19476;51.448;6.674;2023-12-20T13:41:48;12.50;61.70
33105;DHT22;19476;51.448;6.674;2023-12-20T13:44:13;12.50;62.00
33105;DHT22;19476;51.448;6.674;2023-12-20T13:46:40;12.40;62.00
33105;DHT22;19476;51.448;6.674;2023-12-20T13:49:06;12.50;62.20
33105;DHT22;19476;51.448;6.674;2023-12-20T13:51:32;12.50;62.30
33105;DHT22;19476;51.448;6.674;2023-12-20T13:53:57;12.50;62.00
33105;DHT22;19476;51.448;6.674;2023-12-20T13:56:25;12.50;62.20
33105;DHT22;19476;51.448;6.674;2023-12-20T13:58:55;12.40;62.30
33105;DHT22;19476;51.448;6.674;2023-12-20T14:01:20;12.50;62.40
33105;DHT22;19476;51.448;6.674;2023-12-20T14:03:46;12.50;62.40
33105;DHT22;19476;51.448;6.674;2023-12-20T14:06:11;12.50;62.40
33105;DHT22;19476;51.448;6.674;2023-12-20T14:08:39;12.50;62.40
33105;DHT22;19476;51.448;6.674;2023-12-20T14:11:05;12.50;62.50
33105;DHT22;19476;51.448;6.674;2023-12-20T14:13:33;12.50;62.50
33105;DHT22;19476;51.448;6.674;2023-12-20T14:15:58;12.50;62.70
33105;DHT22;19476;51.448;6.674;2023-12-20T14:18:25;12.50;62.50
33105;DHT22;19476;51.448;6.674;2023-12-20T14:20:51;12.50;62.50
33105;DHT22;19476;51.448;6.674;2023-12-20T14:23:17;12.50;62.50
33105;DHT22;19476;51.448;6.674;2023-12-20T14:25:43;12.50;62.40
33105;DHT22;19476;51.448;6.674;2023-12-20T14:28:08;12.50;62.30
33105;DHT22;19476;51.448;6.674;2023-12-20T14:30:35;12.50;62.30
33105;DHT22;19476;51.448;6.674;2023-12-20T14:33:02;12.50;62.30
33105;DHT22;19476;51.448;6.674;2023-12-20T14:35:27;12.50;62.30
33105;DHT22;19476;51.448;6.674;2023-12-20T14:37:53;12.50;62.40
33105;DHT22;19476;51.448;6.674;2023-12-20T14:40:19;12.50;62.60
33105;DHT22;19476;51.448;6.674;2023-12-20T14:42:44;12.40;63.10
33105;DHT22;19476;51.448;6.674;2023-12-20T14:45:10;12.50;62.70
33105;DHT22;19476;51.448;6.674;2023-12-20T14:47:36;12.20;62.20
33105;DHT22;19476;51.448;6.674;2023-12-20T14:50:02;12.50;62.40
33105;DHT22;19476;51.448;6.674;2023-12-20T14:52:29;12.50;62.50
33105;DHT22;19476;51.448;6.674;2023-12-20T14:54:55;12.50;62.60
33105;DHT22;19476;51.448;6.674;2023-12-20T14:57:21;12.50;63.00
33105;DHT22;19476;51.448;6.674;2023-12-20T14:59:46;12.50;62.40
33105;DHT22;19476;51.448;6.674;2023-12-20T15:02:12;12.50;62.40
33105;DHT22;19476;51.448;6.674;2023-12-20T15:04:37;12.50;62.40
33105;DHT22;19476;51.448;6.674;2023-12-20T15:07:03;12.50;62.50
33105;DHT22;19476;51.448;6.674;2023-12-20T15:09:31;12.50;62.70
33105;DHT22;19476;51.448;6.674;2023-12-20T15:11:57;12.50;62.60
33105;DHT22;19476;51.448;6.674;2023-12-20T15:14:22;12.50;62.70
33105;DHT22;19476;51.448;6.674;2023-12-20T15:16:48;12.30;62.50
33105;DHT22;19476;51.448;6.674;2023-12-20T15:19:14;12.50;62.50
33105;DHT22;19476;51.448;6.674;2023-12-20T15:21:39;12.50;62.50
33105;DHT22;19476;51.448;6.674;2023-12-20T15:24:08;12.60;62.60
33105;DHT22;19476;51.448;6.674;2023-12-20T15:26:45;12.60;62.50
33105;DHT22;19476;51.448;6.674;2023-12-20T15:29:11;12.60;62.40